sensor_id;sensor_type;location;lat;lon;timestamp;P1;durP1;ratioP1;P2;durP2;ratioP2
14748;SDS011;7466;53.574;9.976;2023-04-03T00:00:49;7.67;;;3.00;;
14748;SDS011;7466;53.574;9.976;2023-04-03T00:03:16;4.67;;;2.90;;
14748;SDS011;7466;53.574;9.976;2023-04-03T00:05:43;7.70;;;2.77;;
14748;SDS011;7466;53.574;9.976;2023-04-03T00:08:10;8.27;;;2.90;;
14748;SDS011;7466;53.574;9.976;2023-04-03T00:10:38;5.40;;;2.80;;
14748;SDS011;7466;53.574;9.976;2023-04-03T00:13:05;6.03;;;3.13;;
14748;SDS011;7466;53.574;9.976;2023-04-03T00:15:32;6.23;;;2.87;;
14748;SDS011;7466;53.574;9.976;2023-04-03T00:18:01;4.03;;;2.50;;
14748;SDS011;7466;53.574;9.976;2023-04-03T00:20:28;10.47;;;3.30;;
14748;SDS011;7466;53.574;9.976;2023-04-03T00:22:57;7.13;;;3.10;;
14748;SDS011;7466;53.574;9.976;2023-04-03T00:25:24;6.30;;;2.70;;
14748;SDS011;7466;53.574;9.976;2023-04-03T00:27:52;7.03;;;2.90;;
14748;SDS011;7466;53.574;9.976;2023-04-03T00:30:20;7.47;;;3.10;;
14748;SDS011;7466;53.574;9.976;2023-04-03T00:32:48;5.60;;;3.00;;
14748;SDS011;7466;53.574;9.976;2023-04-03T00:35:16;7.77;;;2.87;;
14748;SDS011;7466;53.574;9.976;2023-04-03T00:37:47;5.97;;;3.30;;
14748;SDS011;7466;53.574;9.976;2023-04-03T00:40:18;6.23;;;2.93;;
14748;SDS011;7466;53.574;9.976;2023-04-03T00:42:48;8.93;;;3.10;;
14748;SDS011;7466;53.574;9.976;2023-04-03T00:45:24;7.57;;;2.97;;
14748;SDS011;7466;53.574;9.976;2023-04-03T00:47:56;8.67;;;2.90;;
14748;SDS011;7466;53.574;9.976;2023-04-03T00:50:25;7.13;;;3.00;;
14748;SDS011;7466;53.574;9.976;2023-04-03T00:52:53;6.50;;;3.13;;
14748;SDS011;7466;53.574;9.976;2023-04-03T00:55:21;5.63;;;3.67;;
14748;SDS011;7466;53.574;9.976;2023-04-03T00:57:56;6.17;;;2.90;;
14748;SDS011;7466;53.574;9.976;2023-04-03T01:00:25;9.80;;;3.60;;
14748;SDS011;7466;53.574;9.976;2023-04-03T01:02:52;7.93;;;3.23;;
14748;SDS011;7466;53.574;9.976;2023-04-03T01:05:23;6.03;;;3.10;;
14748;SDS011;7466;53.574;9.976;2023-04-03T01:07:50;7.27;;;3.30;;
14748;SDS011;7466;53.574;9.976;2023-04-03T01:10:19;5.93;;;3.27;;
14748;SDS011;7466;53.574;9.976;2023-04-03T01:12:47;7.73;;;4.10;;
14748;SDS011;7466;53.574;9.976;2023-04-03T01:15:16;11.37;;;3.50;;
14748;SDS011;7466;53.574;9.976;2023-04-03T01:17:47;5.07;;;2.90;;
14748;SDS011;7466;53.574;9.976;2023-04-03T01:20:26;5.67;;;3.13;;
14748;SDS011;7466;53.574;9.976;2023-04-03T01:23:12;8.13;;;3.37;;
14748;SDS011;7466;53.574;9.976;2023-04-03T01:25:49;8.23;;;3.30;;
14748;SDS011;7466;53.574;9.976;2023-04-03T01:28:19;6.17;;;3.00;;
14748;SDS011;7466;53.574;9.976;2023-04-03T01:30:48;12.20;;;3.30;;
14748;SDS011;7466;53.574;9.976;2023-04-03T01:33:20;7.27;;;3.73;;
14748;SDS011;7466;53.574;9.976;2023-04-03T01:35:47;5.73;;;3.10;;
14748;SDS011;7466;53.574;9.976;2023-04-03T01:38:14;3.70;;;3.30;;
14748;SDS011;7466;53.574;9.976;2023-04-03T01:40:41;8.77;;;3.40;;
14748;SDS011;7466;53.574;9.976;2023-04-03T01:43:08;8.90;;;3.57;;
14748;SDS011;7466;53.574;9.976;2023-04-03T01:45:35;6.87;;;3.27;;
14748;SDS011;7466;53.574;9.976;2023-04-03T01:48:02;6.23;;;3.47;;
14748;SDS011;7466;53.574;9.976;2023-04-03T01:50:31;5.93;;;3.17;;
14748;SDS011;7466;53.574;9.976;2023-04-03T01:52:58;9.30;;;3.30;;
14748;SDS011;7466;53.574;9.976;2023-04-03T01:55:25;6.90;;;2.80;;
14748;SDS011;7466;53.574;9.976;2023-04-03T01:57:52;4.13;;;2.77;;
14748;SDS011;7466;53.574;9.976;2023-04-03T02:00:19;8.03;;;3.40;;
14748;SDS011;7466;53.574;9.976;2023-04-03T02:02:46;9.30;;;3.80;;
14748;SDS011;7466;53.574;9.976;2023-04-03T02:05:13;7.03;;;3.43;;
14748;SDS011;7466;53.574;9.976;2023-04-03T02:07:42;5.57;;;2.97;;
14748;SDS011;7466;53.574;9.976;2023-04-03T02:10:09;10.43;;;3.53;;
14748;SDS011;7466;53.574;9.976;2023-04-03T02:12:36;7.03;;;3.07;;
14748;SDS011;7466;53.574;9.976;2023-04-03T02:15:03;8.93;;;2.90;;
14748;SDS011;7466;53.574;9.976;2023-04-03T02:17:30;8.33;;;4.10;;
14748;SDS011;7466;53.574;9.976;2023-04-03T02:19:57;6.67;;;3.30;;
14748;SDS011;7466;53.574;9.976;2023-04-03T02:22:24;3.50;;;3.10;;
14748;SDS011;7466;53.574;9.976;2023-04-03T02:24:53;6.20;;;3.10;;
14748;SDS011;7466;53.574;9.976;2023-04-03T02:27:20;4.07;;;2.93;;
14748;SDS011;7466;53.574;9.976;2023-04-03T02:29:47;5.57;;;3.00;;
14748;SDS011;7466;53.574;9.976;2023-04-03T02:32:14;5.83;;;2.77;;
14748;SDS011;7466;53.574;9.976;2023-04-03T02:34:41;6.60;;;3.50;;
14748;SDS011;7466;53.574;9.976;2023-04-03T02:37:08;9.07;;;3.17;;
14748;SDS011;7466;53.574;9.976;2023-04-03T02:39:35;8.87;;;3.50;;
14748;SDS011;7466;53.574;9.976;2023-04-03T02:42:03;5.90;;;3.20;;
14748;SDS011;7466;53.574;9.976;2023-04-03T02:44:30;9.03;;;3.47;;
14748;SDS011;7466;53.574;9.976;2023-04-03T02:46:57;5.60;;;3.37;;
14748;SDS011;7466;53.574;9.976;2023-04-03T02:49:24;6.40;;;3.20;;
14748;SDS011;7466;53.574;9.976;2023-04-03T02:51:51;5.00;;;2.83;;
14748;SDS011;7466;53.574;9.976;2023-04-03T02:54:17;4.47;;;3.20;;
14748;SDS011;7466;53.574;9.976;2023-04-03T02:56:44;6.83;;;3.10;;
14748;SDS011;7466;53.574;9.976;2023-04-03T02:59:12;6.47;;;3.40;;
14748;SDS011;7466;53.574;9.976;2023-04-03T03:01:39;9.60;;;3.37;;
14748;SDS011;7466;53.574;9.976;2023-04-03T03:04:06;9.30;;;3.60;;
14748;SDS011;7466;53.574;9.976;2023-04-03T03:06:33;4.63;;;3.07;;
14748;SDS011;7466;53.574;9.976;2023-04-03T03:09:00;5.27;;;3.50;;
14748;SDS011;7466;53.574;9.976;2023-04-03T03:11:28;5.87;;;3.10;;
14748;SDS011;7466;53.574;9.976;2023-04-03T03:13:55;7.73;;;3.10;;
14748;SDS011;7466;53.574;9.976;2023-04-03T03:16:23;11.53;;;3.90;;
14748;SDS011;7466;53.574;9.976;2023-04-03T03:18:51;9.80;;;3.27;;
14748;SDS011;7466;53.574;9.976;2023-04-03T03:21:18;11.53;;;3.60;;
14748;SDS011;7466;53.574;9.976;2023-04-03T03:23:45;8.07;;;3.43;;
14748;SDS011;7466;53.574;9.976;2023-04-03T03:26:12;9.57;;;3.33;;
14748;SDS011;7466;53.574;9.976;2023-04-03T03:28:39;7.70;;;3.30;;
14748;SDS011;7466;53.574;9.976;2023-04-03T03:31:06;8.47;;;3.67;;
14748;SDS011;7466;53.574;9.976;2023-04-03T03:33:36;8.67;;;3.50;;
14748;SDS011;7466;53.574;9.976;2023-04-03T03:36:03;9.50;;;3.37;;
14748;SDS011;7466;53.574;9.976;2023-04-03T03:38:30;5.13;;;3.30;;
14748;SDS011;7466;53.574;9.976;2023-04-03T03:40:58;4.17;;;3.00;;
14748;SDS011;7466;53.574;9.976;2023-04-03T03:43:25;7.83;;;3.40;;
14748;SDS011;7466;53.574;9.976;2023-04-03T03:45:52;8.17;;;3.73;;
14748;SDS011;7466;53.574;9.976;2023-04-03T03:48:19;6.63;;;3.30;;
14748;SDS011;7466;53.574;9.976;2023-04-03T03:50:47;4.20;;;3.40;;
14748;SDS011;7466;53.574;9.976;2023-04-03T03:53:14;3.90;;;3.40;;
14748;SDS011;7466;53.574;9.976;2023-04-03T03:55:41;8.33;;;3.70;;
14748;SDS011;7466;53.574;9.976;2023-04-03T03:58:08;5.17;;;3.50;;
14748;SDS011;7466;53.574;9.976;2023-04-03T04:00:35;5.97;;;3.33;;
14748;SDS011;7466;53.574;9.976;2023-04-03T04:03:02;12.60;;;3.37;;
14748;SDS011;7466;53.574;9.976;2023-04-03T04:05:29;7.40;;;3.50;;
14748;SDS011;7466;53.574;9.976;2023-04-03T04:07:58;6.20;;;3.50;;
14748;SDS011;7466;53.574;9.976;2023-04-03T04:10:26;8.27;;;3.40;;
14748;SDS011;7466;53.574;9.976;2023-04-03T04:12:53;7.33;;;3.80;;
14748;SDS011;7466;53.574;9.976;2023-04-03T04:15:20;10.20;;;3.27;;
14748;SDS011;7466;53.574;9.976;2023-04-03T04:17:47;4.83;;;3.30;;
14748;SDS011;7466;53.574;9.976;2023-04-03T04:20:14;8.33;;;3.60;;
14748;SDS011;7466;53.574;9.976;2023-04-03T04:22:41;7.87;;;3.83;;
14748;SDS011;7466;53.574;9.976;2023-04-03T04:25:09;5.27;;;3.23;;
14748;SDS011;7466;53.574;9.976;2023-04-03T04:27:36;8.77;;;4.10;;
14748;SDS011;7466;53.574;9.976;2023-04-03T04:30:04;6.87;;;3.73;;
14748;SDS011;7466;53.574;9.976;2023-04-03T04:32:32;4.43;;;3.33;;
14748;SDS011;7466;53.574;9.976;2023-04-03T04:34:59;7.80;;;3.90;;
14748;SDS011;7466;53.574;9.976;2023-04-03T04:37:26;8.17;;;4.50;;
14748;SDS011;7466;53.574;9.976;2023-04-03T04:39:53;5.27;;;4.07;;
14748;SDS011;7466;53.574;9.976;2023-04-03T04:42:21;5.57;;;3.53;;
14748;SDS011;7466;53.574;9.976;2023-04-03T04:44:48;6.30;;;3.80;;
14748;SDS011;7466;53.574;9.976;2023-04-03T04:47:15;11.23;;;4.23;;
14748;SDS011;7466;53.574;9.976;2023-04-03T04:49:41;7.77;;;3.80;;
14748;SDS011;7466;53.574;9.976;2023-04-03T04:52:08;5.30;;;3.87;;
14748;SDS011;7466;53.574;9.976;2023-04-03T04:54:35;7.30;;;4.10;;
14748;SDS011;7466;53.574;9.976;2023-04-03T04:57:02;6.20;;;3.93;;
14748;SDS011;7466;53.574;9.976;2023-04-03T04:59:30;7.80;;;3.93;;
14748;SDS011;7466;53.574;9.976;2023-04-03T05:01:57;7.10;;;4.03;;
14748;SDS011;7466;53.574;9.976;2023-04-03T05:04:24;6.67;;;3.90;;
14748;SDS011;7466;53.574;9.976;2023-04-03T05:06:50;9.10;;;3.90;;
14748;SDS011;7466;53.574;9.976;2023-04-03T05:09:19;7.63;;;3.70;;
14748;SDS011;7466;53.574;9.976;2023-04-03T05:11:49;9.23;;;4.27;;
14748;SDS011;7466;53.574;9.976;2023-04-03T05:14:19;6.97;;;3.80;;
14748;SDS011;7466;53.574;9.976;2023-04-03T05:16:47;6.80;;;3.57;;
14748;SDS011;7466;53.574;9.976;2023-04-03T05:19:17;14.57;;;4.03;;
14748;SDS011;7466;53.574;9.976;2023-04-03T05:21:44;8.50;;;4.00;;
14748;SDS011;7466;53.574;9.976;2023-04-03T05:24:11;6.43;;;3.57;;
14748;SDS011;7466;53.574;9.976;2023-04-03T05:26:39;6.20;;;3.70;;
14748;SDS011;7466;53.574;9.976;2023-04-03T05:29:05;9.43;;;4.10;;
14748;SDS011;7466;53.574;9.976;2023-04-03T05:31:34;6.97;;;4.17;;
14748;SDS011;7466;53.574;9.976;2023-04-03T05:34:02;7.20;;;4.53;;
14748;SDS011;7466;53.574;9.976;2023-04-03T05:36:29;7.27;;;3.87;;
14748;SDS011;7466;53.574;9.976;2023-04-03T05:38:56;6.23;;;3.90;;
14748;SDS011;7466;53.574;9.976;2023-04-03T05:41:23;10.97;;;3.90;;
14748;SDS011;7466;53.574;9.976;2023-04-03T05:43:50;9.47;;;3.80;;
14748;SDS011;7466;53.574;9.976;2023-04-03T05:46:18;12.87;;;4.57;;
14748;SDS011;7466;53.574;9.976;2023-04-03T05:48:46;7.80;;;4.00;;
14748;SDS011;7466;53.574;9.976;2023-04-03T05:51:15;7.93;;;4.63;;
14748;SDS011;7466;53.574;9.976;2023-04-03T05:53:44;7.83;;;3.60;;
14748;SDS011;7466;53.574;9.976;2023-04-03T05:56:12;10.03;;;4.43;;
14748;SDS011;7466;53.574;9.976;2023-04-03T05:58:39;10.27;;;4.53;;
14748;SDS011;7466;53.574;9.976;2023-04-03T06:01:06;5.03;;;3.97;;
14748;SDS011;7466;53.574;9.976;2023-04-03T06:03:33;6.10;;;3.60;;
14748;SDS011;7466;53.574;9.976;2023-04-03T06:06:02;6.30;;;3.80;;
14748;SDS011;7466;53.574;9.976;2023-04-03T06:08:31;8.27;;;3.83;;
14748;SDS011;7466;53.574;9.976;2023-04-03T06:10:58;7.63;;;3.93;;
14748;SDS011;7466;53.574;9.976;2023-04-03T06:13:27;9.93;;;4.20;;
14748;SDS011;7466;53.574;9.976;2023-04-03T06:15:54;6.20;;;3.47;;
14748;SDS011;7466;53.574;9.976;2023-04-03T06:18:21;8.47;;;3.53;;
14748;SDS011;7466;53.574;9.976;2023-04-03T06:20:48;4.77;;;2.97;;
14748;SDS011;7466;53.574;9.976;2023-04-03T06:23:15;9.00;;;3.47;;
14748;SDS011;7466;53.574;9.976;2023-04-03T06:25:44;4.80;;;2.90;;
14748;SDS011;7466;53.574;9.976;2023-04-03T06:28:11;10.93;;;4.77;;
14748;SDS011;7466;53.574;9.976;2023-04-03T06:30:38;7.90;;;2.90;;
14748;SDS011;7466;53.574;9.976;2023-04-03T06:33:05;8.60;;;3.27;;
14748;SDS011;7466;53.574;9.976;2023-04-03T06:35:32;4.50;;;3.07;;
14748;SDS011;7466;53.574;9.976;2023-04-03T06:38:03;5.43;;;3.37;;
14748;SDS011;7466;53.574;9.976;2023-04-03T06:40:34;7.10;;;3.33;;
14748;SDS011;7466;53.574;9.976;2023-04-03T06:43:07;3.70;;;2.87;;
14748;SDS011;7466;53.574;9.976;2023-04-03T06:45:34;7.97;;;3.00;;
14748;SDS011;7466;53.574;9.976;2023-04-03T06:48:01;6.17;;;2.80;;
14748;SDS011;7466;53.574;9.976;2023-04-03T06:50:28;3.40;;;3.07;;
14748;SDS011;7466;53.574;9.976;2023-04-03T06:52:55;5.67;;;2.60;;
14748;SDS011;7466;53.574;9.976;2023-04-03T06:55:22;4.17;;;2.53;;
14748;SDS011;7466;53.574;9.976;2023-04-03T06:57:49;10.33;;;2.40;;
14748;SDS011;7466;53.574;9.976;2023-04-03T07:00:21;5.90;;;2.70;;
14748;SDS011;7466;53.574;9.976;2023-04-03T07:02:48;5.83;;;2.70;;
14748;SDS011;7466;53.574;9.976;2023-04-03T07:08:35;4.50;;;2.40;;
14748;SDS011;7466;53.574;9.976;2023-04-03T07:11:02;5.50;;;2.10;;
14748;SDS011;7466;53.574;9.976;2023-04-03T07:13:29;2.93;;;1.60;;
14748;SDS011;7466;53.574;9.976;2023-04-03T07:15:59;5.20;;;2.20;;
14748;SDS011;7466;53.574;9.976;2023-04-03T07:18:31;5.23;;;2.00;;
14748;SDS011;7466;53.574;9.976;2023-04-03T07:20:58;4.37;;;1.70;;
14748;SDS011;7466;53.574;9.976;2023-04-03T07:23:28;3.47;;;1.80;;
14748;SDS011;7466;53.574;9.976;2023-04-03T07:25:56;2.07;;;1.77;;
14748;SDS011;7466;53.574;9.976;2023-04-03T07:28:23;2.30;;;1.50;;
14748;SDS011;7466;53.574;9.976;2023-04-03T07:30:51;3.33;;;1.50;;
14748;SDS011;7466;53.574;9.976;2023-04-03T07:33:28;3.57;;;1.57;;
14748;SDS011;7466;53.574;9.976;2023-04-03T07:35:56;4.47;;;1.60;;
14748;SDS011;7466;53.574;9.976;2023-04-03T07:38:23;3.50;;;1.47;;
14748;SDS011;7466;53.574;9.976;2023-04-03T07:40:50;3.43;;;1.60;;
14748;SDS011;7466;53.574;9.976;2023-04-03T07:43:19;3.50;;;1.70;;
14748;SDS011;7466;53.574;9.976;2023-04-03T07:45:47;6.43;;;1.67;;
14748;SDS011;7466;53.574;9.976;2023-04-03T07:48:16;2.87;;;1.60;;
14748;SDS011;7466;53.574;9.976;2023-04-03T07:50:46;2.10;;;1.20;;
14748;SDS011;7466;53.574;9.976;2023-04-03T07:53:16;2.93;;;1.40;;
14748;SDS011;7466;53.574;9.976;2023-04-03T07:55:45;3.17;;;1.40;;
14748;SDS011;7466;53.574;9.976;2023-04-03T07:58:15;4.40;;;1.63;;
14748;SDS011;7466;53.574;9.976;2023-04-03T08:00:43;3.43;;;1.47;;
14748;SDS011;7466;53.574;9.976;2023-04-03T08:03:10;5.63;;;1.80;;
14748;SDS011;7466;53.574;9.976;2023-04-03T08:05:38;4.50;;;1.77;;
14748;SDS011;7466;53.574;9.976;2023-04-03T08:08:07;5.37;;;2.03;;
14748;SDS011;7466;53.574;9.976;2023-04-03T08:10:35;2.10;;;1.50;;
14748;SDS011;7466;53.574;9.976;2023-04-03T08:13:02;3.30;;;1.50;;
14748;SDS011;7466;53.574;9.976;2023-04-03T08:15:29;3.83;;;1.60;;
14748;SDS011;7466;53.574;9.976;2023-04-03T08:17:57;4.07;;;1.63;;
14748;SDS011;7466;53.574;9.976;2023-04-03T08:20:24;2.93;;;1.47;;
14748;SDS011;7466;53.574;9.976;2023-04-03T08:22:51;2.80;;;1.57;;
14748;SDS011;7466;53.574;9.976;2023-04-03T08:25:19;2.70;;;1.50;;
14748;SDS011;7466;53.574;9.976;2023-04-03T08:27:57;3.23;;;1.40;;
14748;SDS011;7466;53.574;9.976;2023-04-03T08:30:24;2.57;;;1.50;;
14748;SDS011;7466;53.574;9.976;2023-04-03T08:32:51;2.40;;;1.77;;
14748;SDS011;7466;53.574;9.976;2023-04-03T08:35:21;2.10;;;1.30;;
14748;SDS011;7466;53.574;9.976;2023-04-03T08:37:48;2.97;;;1.37;;
14748;SDS011;7466;53.574;9.976;2023-04-03T08:40:15;2.80;;;1.20;;
14748;SDS011;7466;53.574;9.976;2023-04-03T08:42:47;2.07;;;1.37;;
14748;SDS011;7466;53.574;9.976;2023-04-03T08:45:27;3.00;;;1.60;;
14748;SDS011;7466;53.574;9.976;2023-04-03T08:48:05;1.40;;;1.30;;
14748;SDS011;7466;53.574;9.976;2023-04-03T08:50:36;2.00;;;1.40;;
14748;SDS011;7466;53.574;9.976;2023-04-03T08:53:08;2.93;;;1.20;;
14748;SDS011;7466;53.574;9.976;2023-04-03T08:55:42;1.13;;;1.03;;
14748;SDS011;7466;53.574;9.976;2023-04-03T08:58:14;2.70;;;1.40;;
14748;SDS011;7466;53.574;9.976;2023-04-03T09:00:44;2.30;;;1.30;;
14748;SDS011;7466;53.574;9.976;2023-04-03T09:03:15;2.00;;;1.07;;
14748;SDS011;7466;53.574;9.976;2023-04-03T09:05:45;2.27;;;1.30;;
14748;SDS011;7466;53.574;9.976;2023-04-03T09:08:21;2.10;;;1.13;;
14748;SDS011;7466;53.574;9.976;2023-04-03T09:10:51;4.17;;;1.50;;
14748;SDS011;7466;53.574;9.976;2023-04-03T09:13:26;2.80;;;1.40;;
14748;SDS011;7466;53.574;9.976;2023-04-03T09:15:59;1.53;;;1.10;;
14748;SDS011;7466;53.574;9.976;2023-04-03T09:18:38;1.50;;;0.93;;
14748;SDS011;7466;53.574;9.976;2023-04-03T09:21:13;2.43;;;1.20;;
14748;SDS011;7466;53.574;9.976;2023-04-03T09:23:47;4.63;;;1.30;;
14748;SDS011;7466;53.574;9.976;2023-04-03T09:26:17;4.13;;;1.60;;
14748;SDS011;7466;53.574;9.976;2023-04-03T09:28:51;2.00;;;1.53;;
14748;SDS011;7466;53.574;9.976;2023-04-03T09:31:20;2.50;;;1.50;;
14748;SDS011;7466;53.574;9.976;2023-04-03T09:33:56;1.83;;;1.20;;
14748;SDS011;7466;53.574;9.976;2023-04-03T09:36:39;1.20;;;1.10;;
14748;SDS011;7466;53.574;9.976;2023-04-03T09:39:10;2.63;;;1.13;;
14748;SDS011;7466;53.574;9.976;2023-04-03T09:41:39;1.87;;;1.20;;
14748;SDS011;7466;53.574;9.976;2023-04-03T09:44:19;2.07;;;1.23;;
14748;SDS011;7466;53.574;9.976;2023-04-03T09:46:47;2.67;;;1.30;;
14748;SDS011;7466;53.574;9.976;2023-04-03T09:49:14;1.70;;;1.10;;
14748;SDS011;7466;53.574;9.976;2023-04-03T09:51:41;2.63;;;1.20;;
14748;SDS011;7466;53.574;9.976;2023-04-03T09:54:24;2.83;;;1.40;;
14748;SDS011;7466;53.574;9.976;2023-04-03T09:57:06;2.00;;;1.50;;
14748;SDS011;7466;53.574;9.976;2023-04-03T09:59:37;4.50;;;2.07;;
14748;SDS011;7466;53.574;9.976;2023-04-03T10:05:00;2.30;;;1.13;;
14748;SDS011;7466;53.574;9.976;2023-04-03T10:07:31;2.30;;;1.10;;
14748;SDS011;7466;53.574;9.976;2023-04-03T10:10:18;2.40;;;1.13;;
14748;SDS011;7466;53.574;9.976;2023-04-03T10:12:47;1.70;;;0.97;;
14748;SDS011;7466;53.574;9.976;2023-04-03T10:15:17;1.67;;;0.90;;
14748;SDS011;7466;53.574;9.976;2023-04-03T10:17:49;2.63;;;1.30;;
14748;SDS011;7466;53.574;9.976;2023-04-03T10:20:30;1.83;;;1.00;;
14748;SDS011;7466;53.574;9.976;2023-04-03T10:23:12;2.27;;;1.17;;
14748;SDS011;7466;53.574;9.976;2023-04-03T10:25:47;2.07;;;1.13;;
14748;SDS011;7466;53.574;9.976;2023-04-03T10:28:24;2.10;;;1.30;;
14748;SDS011;7466;53.574;9.976;2023-04-03T10:31:00;2.70;;;0.93;;
14748;SDS011;7466;53.574;9.976;2023-04-03T10:33:36;2.33;;;1.17;;
14748;SDS011;7466;53.574;9.976;2023-04-03T10:36:13;1.20;;;1.00;;
14748;SDS011;7466;53.574;9.976;2023-04-03T10:38:50;2.27;;;1.30;;
14748;SDS011;7466;53.574;9.976;2023-04-03T10:41:24;1.87;;;1.03;;
14748;SDS011;7466;53.574;9.976;2023-04-03T10:43:59;1.30;;;1.00;;
14748;SDS011;7466;53.574;9.976;2023-04-03T10:46:36;1.63;;;1.20;;
14748;SDS011;7466;53.574;9.976;2023-04-03T10:49:10;2.83;;;1.30;;
14748;SDS011;7466;53.574;9.976;2023-04-03T10:51:48;1.33;;;1.10;;
14748;SDS011;7466;53.574;9.976;2023-04-03T10:54:22;1.70;;;1.00;;
14748;SDS011;7466;53.574;9.976;2023-04-03T10:56:52;2.27;;;1.13;;
14748;SDS011;7466;53.574;9.976;2023-04-03T10:59:23;1.50;;;1.07;;
14748;SDS011;7466;53.574;9.976;2023-04-03T11:01:57;1.30;;;1.20;;
14748;SDS011;7466;53.574;9.976;2023-04-03T11:04:28;1.83;;;1.30;;
14748;SDS011;7466;53.574;9.976;2023-04-03T11:07:00;2.63;;;1.40;;
14748;SDS011;7466;53.574;9.976;2023-04-03T11:09:31;1.57;;;1.20;;
14748;SDS011;7466;53.574;9.976;2023-04-03T11:12:03;2.73;;;1.20;;
14748;SDS011;7466;53.574;9.976;2023-04-03T11:14:35;1.83;;;1.27;;
14748;SDS011;7466;53.574;9.976;2023-04-03T11:17:07;2.90;;;1.23;;
14748;SDS011;7466;53.574;9.976;2023-04-03T11:19:43;1.73;;;1.40;;
14748;SDS011;7466;53.574;9.976;2023-04-03T11:24:51;1.70;;;1.30;;
14748;SDS011;7466;53.574;9.976;2023-04-03T11:27:24;1.50;;;1.37;;
14748;SDS011;7466;53.574;9.976;2023-04-03T11:29:55;2.73;;;1.47;;
14748;SDS011;7466;53.574;9.976;2023-04-03T11:32:31;3.23;;;1.50;;
14748;SDS011;7466;53.574;9.976;2023-04-03T11:35:11;1.30;;;1.20;;
14748;SDS011;7466;53.574;9.976;2023-04-03T11:37:39;1.37;;;1.27;;
14748;SDS011;7466;53.574;9.976;2023-04-03T11:40:17;2.73;;;1.53;;
14748;SDS011;7466;53.574;9.976;2023-04-03T11:42:48;1.30;;;1.20;;
14748;SDS011;7466;53.574;9.976;2023-04-03T11:45:24;2.43;;;1.53;;
14748;SDS011;7466;53.574;9.976;2023-04-03T11:47:59;1.60;;;1.27;;
14748;SDS011;7466;53.574;9.976;2023-04-03T11:50:30;2.03;;;1.30;;
14748;SDS011;7466;53.574;9.976;2023-04-03T11:53:29;2.30;;;1.53;;
14748;SDS011;7466;53.574;9.976;2023-04-03T11:56:04;2.37;;;1.43;;
14748;SDS011;7466;53.574;9.976;2023-04-03T12:01:50;3.73;;;1.40;;
14748;SDS011;7466;53.574;9.976;2023-04-03T12:04:19;2.07;;;1.40;;
14748;SDS011;7466;53.574;9.976;2023-04-03T12:12:41;1.20;;;1.10;;
14748;SDS011;7466;53.574;9.976;2023-04-03T12:15:16;2.03;;;1.13;;
14748;SDS011;7466;53.574;9.976;2023-04-03T12:17:49;5.47;;;1.93;;
14748;SDS011;7466;53.574;9.976;2023-04-03T12:23:30;3.47;;;1.80;;
14748;SDS011;7466;53.574;9.976;2023-04-03T12:25:59;2.30;;;1.83;;
14748;SDS011;7466;53.574;9.976;2023-04-03T12:28:30;4.37;;;1.60;;
14748;SDS011;7466;53.574;9.976;2023-04-03T12:31:02;2.53;;;1.70;;
14748;SDS011;7466;53.574;9.976;2023-04-03T12:33:33;2.40;;;1.97;;
14748;SDS011;7466;53.574;9.976;2023-04-03T12:36:18;1.80;;;1.60;;
14748;SDS011;7466;53.574;9.976;2023-04-03T12:38:58;2.13;;;1.57;;
14748;SDS011;7466;53.574;9.976;2023-04-03T12:41:36;1.77;;;1.40;;
14748;SDS011;7466;53.574;9.976;2023-04-03T12:44:30;2.43;;;1.73;;
14748;SDS011;7466;53.574;9.976;2023-04-03T12:47:07;2.00;;;1.50;;
14748;SDS011;7466;53.574;9.976;2023-04-03T12:49:46;1.70;;;1.20;;
14748;SDS011;7466;53.574;9.976;2023-04-03T12:55:21;1.43;;;1.33;;
14748;SDS011;7466;53.574;9.976;2023-04-03T12:57:48;2.63;;;1.63;;
14748;SDS011;7466;53.574;9.976;2023-04-03T13:00:27;2.70;;;1.20;;
14748;SDS011;7466;53.574;9.976;2023-04-03T13:02:57;1.50;;;1.13;;
14748;SDS011;7466;53.574;9.976;2023-04-03T13:05:25;4.63;;;1.50;;
14748;SDS011;7466;53.574;9.976;2023-04-03T13:07:58;1.87;;;1.07;;
14748;SDS011;7466;53.574;9.976;2023-04-03T13:10:28;2.80;;;1.50;;
14748;SDS011;7466;53.574;9.976;2023-04-03T13:12:58;1.50;;;1.10;;
14748;SDS011;7466;53.574;9.976;2023-04-03T13:15:39;2.17;;;1.20;;
14748;SDS011;7466;53.574;9.976;2023-04-03T13:18:21;1.70;;;1.37;;
14748;SDS011;7466;53.574;9.976;2023-04-03T13:20:52;1.70;;;1.00;;
14748;SDS011;7466;53.574;9.976;2023-04-03T13:23:25;1.83;;;1.30;;
14748;SDS011;7466;53.574;9.976;2023-04-03T13:25:52;1.37;;;1.27;;
14748;SDS011;7466;53.574;9.976;2023-04-03T13:28:20;2.33;;;1.13;;
14748;SDS011;7466;53.574;9.976;2023-04-03T13:30:56;1.77;;;1.30;;
14748;SDS011;7466;53.574;9.976;2023-04-03T13:33:29;2.20;;;1.60;;
14748;SDS011;7466;53.574;9.976;2023-04-03T13:36:03;1.83;;;1.30;;
14748;SDS011;7466;53.574;9.976;2023-04-03T13:38:34;1.30;;;1.20;;
14748;SDS011;7466;53.574;9.976;2023-04-03T13:41:02;1.27;;;1.07;;
14748;SDS011;7466;53.574;9.976;2023-04-03T13:43:33;2.70;;;1.30;;
14748;SDS011;7466;53.574;9.976;2023-04-03T13:46:05;1.50;;;1.23;;
14748;SDS011;7466;53.574;9.976;2023-04-03T13:48:50;1.27;;;1.10;;
14748;SDS011;7466;53.574;9.976;2023-04-03T13:51:20;2.33;;;1.10;;
14748;SDS011;7466;53.574;9.976;2023-04-03T13:53:51;2.13;;;1.30;;
14748;SDS011;7466;53.574;9.976;2023-04-03T13:56:24;2.17;;;1.23;;
14748;SDS011;7466;53.574;9.976;2023-04-03T13:58:57;1.37;;;1.20;;
14748;SDS011;7466;53.574;9.976;2023-04-03T14:01:33;2.83;;;1.20;;
14748;SDS011;7466;53.574;9.976;2023-04-03T14:04:10;4.90;;;1.67;;
14748;SDS011;7466;53.574;9.976;2023-04-03T14:06:43;2.13;;;1.50;;
14748;SDS011;7466;53.574;9.976;2023-04-03T14:09:12;1.50;;;1.23;;
14748;SDS011;7466;53.574;9.976;2023-04-03T14:11:39;2.97;;;1.27;;
14748;SDS011;7466;53.574;9.976;2023-04-03T14:14:10;1.50;;;1.23;;
14748;SDS011;7466;53.574;9.976;2023-04-03T14:16:40;2.10;;;1.30;;
14748;SDS011;7466;53.574;9.976;2023-04-03T14:19:14;1.80;;;1.10;;
14748;SDS011;7466;53.574;9.976;2023-04-03T14:21:49;2.13;;;0.93;;
14748;SDS011;7466;53.574;9.976;2023-04-03T14:24:18;2.13;;;1.20;;
14748;SDS011;7466;53.574;9.976;2023-04-03T14:26:46;1.43;;;1.10;;
14748;SDS011;7466;53.574;9.976;2023-04-03T14:29:14;1.67;;;1.20;;
14748;SDS011;7466;53.574;9.976;2023-04-03T14:31:41;1.77;;;1.37;;
14748;SDS011;7466;53.574;9.976;2023-04-03T14:34:09;4.50;;;1.27;;
14748;SDS011;7466;53.574;9.976;2023-04-03T14:36:40;2.50;;;1.30;;
14748;SDS011;7466;53.574;9.976;2023-04-03T14:39:10;3.57;;;1.20;;
14748;SDS011;7466;53.574;9.976;2023-04-03T14:41:43;1.97;;;1.20;;
14748;SDS011;7466;53.574;9.976;2023-04-03T14:44:10;3.57;;;1.17;;
14748;SDS011;7466;53.574;9.976;2023-04-03T14:46:38;2.97;;;1.37;;
14748;SDS011;7466;53.574;9.976;2023-04-03T14:49:09;2.67;;;1.50;;
14748;SDS011;7466;53.574;9.976;2023-04-03T14:51:40;2.00;;;1.37;;
14748;SDS011;7466;53.574;9.976;2023-04-03T14:54:10;2.17;;;1.27;;
14748;SDS011;7466;53.574;9.976;2023-04-03T14:56:40;1.60;;;1.20;;
14748;SDS011;7466;53.574;9.976;2023-04-03T14:59:09;5.43;;;1.50;;
14748;SDS011;7466;53.574;9.976;2023-04-03T15:01:38;2.07;;;1.53;;
14748;SDS011;7466;53.574;9.976;2023-04-03T15:04:08;1.97;;;1.37;;
14748;SDS011;7466;53.574;9.976;2023-04-03T15:06:37;2.50;;;1.30;;
14748;SDS011;7466;53.574;9.976;2023-04-03T15:09:03;1.83;;;1.30;;
14748;SDS011;7466;53.574;9.976;2023-04-03T15:11:31;1.60;;;0.90;;
14748;SDS011;7466;53.574;9.976;2023-04-03T15:13:57;3.77;;;1.43;;
14748;SDS011;7466;53.574;9.976;2023-04-03T15:16:26;3.00;;;1.30;;
14748;SDS011;7466;53.574;9.976;2023-04-03T15:18:53;1.77;;;1.40;;
14748;SDS011;7466;53.574;9.976;2023-04-03T15:21:20;1.87;;;1.23;;
14748;SDS011;7466;53.574;9.976;2023-04-03T15:23:47;3.03;;;1.67;;
14748;SDS011;7466;53.574;9.976;2023-04-03T15:26:14;2.17;;;1.43;;
14748;SDS011;7466;53.574;9.976;2023-04-03T15:28:43;2.80;;;1.40;;
14748;SDS011;7466;53.574;9.976;2023-04-03T15:31:11;2.83;;;1.30;;
14748;SDS011;7466;53.574;9.976;2023-04-03T15:33:39;4.10;;;1.60;;
14748;SDS011;7466;53.574;9.976;2023-04-03T15:36:07;2.40;;;1.60;;
14748;SDS011;7466;53.574;9.976;2023-04-03T15:38:36;1.77;;;1.33;;
14748;SDS011;7466;53.574;9.976;2023-04-03T15:41:04;3.00;;;1.40;;